Time;durP1;ratioP1;P1;durP2;ratioP2;P2;SDS_P1;SDS_P2;PMS_P1;PMS_P2;Temp;Humidity;BMP_temperature;BMP_pressure;BME280_temperature;BME280_humidity;BME280_pressure;Samples;Min_cycle;Max_cycle;Signal;HPM_P1;HPM_P2
2023/07/16 00:01:18;;;;;;;19.63;5.03;;;16.80;99.90;;;;;;5153967;27;20046;-82
2023/07/16 00:04:04;;;;;;;21.08;5.13;;;16.70;99.90;;;;;;5153792;27;20053;-82
2023/07/16 00:06:50;;;;;;;18.23;6.63;;;16.70;99.90;;;;;;5120622;27;20092;-82
2023/07/16 00:09:36;;;;;;;15.13;5.25;;;16.70;99.90;;;;;;5116928;27;20053;-84
2023/07/16 00:12:22;;;;;;;12.63;4.80;;;16.70;99.90;;;;;;5133148;27;20104;-82
2023/07/16 00:15:09;;;;;;;15.23;5.45;;;16.70;99.90;;;;;;5113930;27;20054;-83
2023/07/16 00:17:55;;;;;;;15.32;5.15;;;16.70;99.90;;;;;;5133852;27;20189;-84
2023/07/16 00:20:41;;;;;;;18.77;5.47;;;16.70;99.90;;;;;;5118171;27;20047;-84
2023/07/16 00:23:28;;;;;;;18.40;6.53;;;16.70;99.90;;;;;;5133221;27;20543;-82
2023/07/16 00:26:14;;;;;;;18.45;5.40;;;16.70;99.90;;;;;;5132369;27;20039;-83
2023/07/16 00:29:00;;;;;;;16.02;5.72;;;16.70;99.90;;;;;;5132711;27;20050;-82
2023/07/16 00:31:46;;;;;;;17.10;5.82;;;16.70;99.90;;;;;;5134077;27;20151;-82
2023/07/16 00:34:32;;;;;;;14.77;4.85;;;16.80;99.90;;;;;;5133738;27;20593;-82
2023/07/16 00:37:18;;;;;;;17.02;4.85;;;16.70;99.90;;;;;;5134810;27;20039;-83
2023/07/16 00:40:05;;;;;;;16.13;4.63;;;16.70;99.90;;;;;;5133486;27;20047;-82
2023/07/16 00:42:51;;;;;;;19.83;5.18;;;16.80;99.90;;;;;;5135979;27;20088;-84
2023/07/16 00:45:38;;;;;;;16.80;4.80;;;16.70;99.90;;;;;;5153950;27;20049;-84
2023/07/16 00:48:25;;;;;;;14.07;4.15;;;16.70;99.90;;;;;;5152915;27;20103;-83
2023/07/16 00:51:12;;;;;;;13.65;4.05;;;16.60;99.90;;;;;;5134253;27;20424;-84
2023/07/16 00:53:59;;;;;;;15.80;5.25;;;16.50;99.90;;;;;;5152702;27;20051;-83
2023/07/16 00:56:45;;;;;;;14.23;4.68;;;16.40;99.90;;;;;;5138618;27;20134;-81
2023/07/16 00:59:31;;;;;;;16.83;3.88;;;16.40;99.90;;;;;;5154975;27;20042;-83
2023/07/16 01:02:18;;;;;;;14.95;3.83;;;16.30;99.90;;;;;;5138180;27;20047;-83
2023/07/16 01:05:04;;;;;;;11.43;3.60;;;16.20;99.90;;;;;;5154903;27;20050;-83
2023/07/16 01:07:59;;;;;;;11.43;3.50;;;16.20;99.90;;;;;;5133931;27;20093;-83
2023/07/16 01:10:45;;;;;;;12.47;4.20;;;16.20;99.90;;;;;;5153583;27;20134;-83
2023/07/16 01:13:32;;;;;;;11.43;3.60;;;16.20;99.90;;;;;;5152590;27;20062;-83
2023/07/16 01:16:22;;;;;;;10.98;3.50;;;16.20;99.90;;;;;;5133966;27;20065;-83
2023/07/16 01:19:10;;;;;;;13.77;4.20;;;16.20;99.90;;;;;;5133951;27;20061;-84
2023/07/16 01:22:22;;;;;;;16.75;4.18;;;16.20;99.90;;;;;;5152060;27;20095;-82
2023/07/16 01:25:22;;;;;;;16.38;3.33;;;16.20;99.90;;;;;;5152146;27;20076;-83
2023/07/16 01:28:46;;;;;;;12.43;3.60;;;16.20;99.90;;;;;;5151440;27;20132;-83
2023/07/16 01:31:34;;;;;;;13.65;3.00;;;16.20;99.90;;;;;;5133105;27;20055;-82
2023/07/16 01:34:20;;;;;;;10.57;4.47;;;16.20;99.90;;;;;;5131406;27;20443;-85
2023/07/16 01:37:07;;;;;;;17.15;5.10;;;16.20;99.90;;;;;;5117455;27;20047;-84
2023/07/16 01:39:53;;;;;;;12.45;4.07;;;16.20;99.90;;;;;;5130741;27;20581;-85
2023/07/16 01:42:40;;;;;;;16.88;4.43;;;16.30;99.90;;;;;;5131288;27;20135;-82
2023/07/16 01:45:26;;;;;;;17.17;4.22;;;16.30;99.90;;;;;;5116567;27;20765;-82
2023/07/16 01:48:20;;;;;;;14.10;3.80;;;16.20;99.90;;;;;;5132627;27;20047;-83
2023/07/16 01:51:06;;;;;;;12.52;4.40;;;16.30;99.90;;;;;;5116498;27;20119;-82
2023/07/16 01:53:52;;;;;;;23.20;4.95;;;16.30;99.90;;;;;;5113749;27;20065;-83
2023/07/16 01:56:38;;;;;;;17.83;4.32;;;16.30;99.90;;;;;;5111409;27;20143;-83
2023/07/16 01:59:25;;;;;;;13.38;3.50;;;16.30;99.90;;;;;;5132017;27;20078;-82
2023/07/16 02:02:11;;;;;;;18.27;4.90;;;16.30;99.90;;;;;;5116550;27;20081;-83
2023/07/16 02:04:57;;;;;;;16.98;4.55;;;16.40;99.90;;;;;;5132025;27;20062;-81
2023/07/16 02:07:43;;;;;;;15.32;3.92;;;16.40;99.90;;;;;;5131519;27;20053;-81
2023/07/16 02:10:29;;;;;;;17.55;3.47;;;16.40;99.90;;;;;;5130915;27;20076;-82
2023/07/16 02:13:15;;;;;;;15.50;4.60;;;16.40;99.90;;;;;;5111895;27;20039;-82
2023/07/16 02:16:01;;;;;;;15.75;4.22;;;16.40;99.90;;;;;;5099044;27;20054;-81
2023/07/16 02:18:47;;;;;;;16.83;4.18;;;16.40;99.90;;;;;;5111284;27;20133;-83
2023/07/16 02:21:33;;;;;;;9.48;3.25;;;16.40;99.90;;;;;;5131132;27;20058;-82
2023/07/16 02:24:19;;;;;;;12.50;3.67;;;16.40;99.90;;;;;;5130794;27;20104;-83
2023/07/16 02:27:05;;;;;;;10.70;2.90;;;16.40;99.90;;;;;;5130530;27;20076;-81
2023/07/16 02:29:51;;;;;;;13.35;3.28;;;16.50;99.90;;;;;;5132542;27;20051;-82
2023/07/16 02:32:37;;;;;;;8.70;3.10;;;16.50;99.90;;;;;;5132175;27;20054;-81
2023/07/16 02:35:23;;;;;;;14.35;2.88;;;16.50;99.90;;;;;;5129533;27;20047;-83
2023/07/16 02:38:09;;;;;;;10.45;2.90;;;16.50;99.90;;;;;;5130044;27;20047;-83
2023/07/16 02:40:55;;;;;;;9.10;3.05;;;16.40;99.90;;;;;;5131971;27;20097;-83
2023/07/16 02:43:41;;;;;;;16.35;3.03;;;16.50;99.90;;;;;;5112671;28;20108;-83
2023/07/16 02:46:28;;;;;;;13.60;4.35;;;16.40;99.90;;;;;;5117346;28;20051;-82
2023/07/16 02:49:14;;;;;;;7.60;2.40;;;16.40;99.90;;;;;;5115051;27;20054;-83
2023/07/16 02:52:00;;;;;;;10.80;3.05;;;16.40;99.90;;;;;;5115889;27;20047;-83
2023/07/16 02:54:46;;;;;;;10.05;2.88;;;16.40;99.90;;;;;;5131557;28;20065;-82
2023/07/16 02:57:32;;;;;;;9.90;3.47;;;16.40;99.90;;;;;;5113355;28;20047;-82
2023/07/16 03:00:18;;;;;;;12.07;3.38;;;16.40;99.90;;;;;;5116684;28;20454;-83
2023/07/16 03:03:04;;;;;;;11.80;4.45;;;16.50;99.90;;;;;;5144439;27;20038;-81
2023/07/16 03:05:50;;;;;;;12.63;3.90;;;16.50;99.90;;;;;;5139911;27;20075;-82
2023/07/16 03:08:36;;;;;;;16.85;4.65;;;16.50;99.90;;;;;;5136482;27;20057;-81
2023/07/16 03:11:22;;;;;;;17.90;4.53;;;16.40;99.90;;;;;;5131472;27;20062;-84
2023/07/16 03:14:08;;;;;;;14.02;4.65;;;16.40;99.90;;;;;;5131384;27;20082;-82
2023/07/16 03:16:54;;;;;;;17.05;4.13;;;16.40;99.90;;;;;;5152704;27;20043;-82
2023/07/16 03:19:40;;;;;;;17.05;4.18;;;16.30;99.90;;;;;;5139628;27;20054;-85
2023/07/16 03:22:26;;;;;;;10.82;4.07;;;16.40;99.90;;;;;;5155000;27;20089;-85
2023/07/16 03:25:13;;;;;;;11.95;4.90;;;16.40;99.90;;;;;;5135908;27;20133;-83
2023/07/16 03:27:59;;;;;;;14.30;4.88;;;16.30;99.90;;;;;;5154240;27;20090;-85
2023/07/16 03:30:47;;;;;;;12.55;4.10;;;16.30;99.90;;;;;;5154257;27;20042;-85
2023/07/16 03:33:33;;;;;;;14.43;4.95;;;16.30;99.90;;;;;;5154190;27;20051;-86
2023/07/16 03:36:19;;;;;;;14.77;4.70;;;16.30;99.90;;;;;;5153786;27;20051;-84
2023/07/16 03:39:05;;;;;;;10.07;3.72;;;16.30;99.90;;;;;;5155263;27;20046;-84
2023/07/16 03:41:52;;;;;;;16.73;5.90;;;16.30;99.90;;;;;;5154242;27;20046;-83
2023/07/16 03:44:38;;;;;;;13.88;4.40;;;16.30;99.90;;;;;;5154468;27;20443;-82
2023/07/16 03:47:24;;;;;;;15.18;4.65;;;16.30;99.90;;;;;;5135106;27;20454;-83
2023/07/16 03:50:10;;;;;;;11.35;5.30;;;16.30;99.90;;;;;;5154371;27;20741;-81
2023/07/16 03:52:56;;;;;;;11.77;4.70;;;16.30;99.90;;;;;;5138151;27;20815;-81
2023/07/16 03:55:42;;;;;;;21.77;5.50;;;16.30;99.90;;;;;;5145362;27;20062;-81
2023/07/16 03:58:29;;;;;;;15.57;4.93;;;16.30;99.90;;;;;;5090434;27;20051;-82
2023/07/16 04:01:15;;;;;;;19.63;4.75;;;16.40;99.90;;;;;;5119151;27;20399;-81
2023/07/16 04:04:01;;;;;;;17.73;5.43;;;16.40;99.90;;;;;;5137375;27;20043;-83
2023/07/16 04:06:47;;;;;;;17.20;4.90;;;16.50;99.90;;;;;;5119071;27;20104;-84
2023/07/16 04:09:36;;;;;;;17.48;5.15;;;16.50;99.90;;;;;;5134312;27;20050;-83
2023/07/16 04:12:22;;;;;;;15.40;5.45;;;16.50;99.90;;;;;;5135959;27;20139;-84
2023/07/16 04:15:10;;;;;;;11.75;4.30;;;16.60;99.90;;;;;;5115328;27;20051;-83
2023/07/16 04:17:56;;;;;;;12.18;4.43;;;16.60;99.90;;;;;;5115239;27;20481;-84
2023/07/16 04:20:42;;;;;;;18.08;5.10;;;16.70;99.90;;;;;;5101458;27;20475;-83
2023/07/16 04:23:28;;;;;;;17.58;5.57;;;16.70;99.90;;;;;;5114021;27;20082;-83
2023/07/16 04:26:14;;;;;;;21.30;5.13;;;16.70;99.90;;;;;;5115035;27;20074;-84
2023/07/16 04:29:00;;;;;;;11.95;4.35;;;16.70;99.90;;;;;;5106641;27;20058;-83
2023/07/16 04:31:46;;;;;;;19.95;5.40;;;16.60;99.90;;;;;;5134090;27;20126;-83
2023/07/16 04:34:32;;;;;;;17.13;5.00;;;16.60;99.90;;;;;;5115840;27;20043;-83
2023/07/16 04:37:18;;;;;;;17.55;5.68;;;16.60;99.90;;;;;;5133814;27;20134;-82
2023/07/16 04:40:05;;;;;;;16.10;6.13;;;16.60;99.90;;;;;;5113911;27;20135;-83
2023/07/16 04:42:51;;;;;;;25.05;6.38;;;16.60;99.90;;;;;;5132273;27;20050;-83
2023/07/16 04:45:39;;;;;;;17.67;5.63;;;16.70;99.90;;;;;;5133350;27;20138;-83
2023/07/16 04:48:26;;;;;;;15.23;6.60;;;16.80;99.90;;;;;;5133496;27;20069;-83
2023/07/16 04:51:12;;;;;;;20.70;5.45;;;16.90;99.90;;;;;;5134493;27;20509;-83
2023/07/16 04:53:58;;;;;;;12.32;5.47;;;16.90;99.90;;;;;;5133558;27;20160;-83
2023/07/16 04:56:45;;;;;;;16.95;5.45;;;17.00;99.90;;;;;;5131870;27;20051;-84
2023/07/16 04:59:31;;;;;;;16.48;5.47;;;17.20;99.90;;;;;;5113449;27;20043;-84
2023/07/16 05:02:17;;;;;;;17.33;5.60;;;17.20;99.90;;;;;;5133031;27;20062;-82
2023/07/16 05:05:03;;;;;;;16.65;5.85;;;17.30;99.90;;;;;;5099493;27;20414;-82
2023/07/16 05:07:49;;;;;;;18.77;7.57;;;17.30;99.90;;;;;;5114003;27;20487;-83
2023/07/16 05:10:35;;;;;;;15.80;5.65;;;17.40;99.90;;;;;;5132591;27;20055;-83
2023/07/16 05:13:21;;;;;;;20.25;6.57;;;17.50;99.90;;;;;;5132531;27;20131;-81
2023/07/16 05:16:07;;;;;;;16.70;5.97;;;17.60;99.90;;;;;;5112786;27;20050;-83
2023/07/16 05:18:54;;;;;;;15.70;5.53;;;17.70;99.90;;;;;;5113026;27;20074;-82
2023/07/16 05:21:40;;;;;;;15.60;5.97;;;17.80;99.90;;;;;;5099605;27;20054;-83
2023/07/16 05:24:26;;;;;;;18.13;5.78;;;17.90;99.90;;;;;;5131322;27;20051;-82
2023/07/16 05:27:12;;;;;;;18.15;5.72;;;17.90;99.90;;;;;;5117374;27;20096;-82
2023/07/16 05:29:58;;;;;;;14.57;5.63;;;17.90;99.90;;;;;;5113177;27;20047;-83
2023/07/16 05:32:44;;;;;;;16.02;6.13;;;17.90;99.90;;;;;;5132139;27;20451;-84
2023/07/16 05:35:30;;;;;;;15.13;5.68;;;18.10;99.90;;;;;;5132494;27;20043;-82
2023/07/16 05:38:16;;;;;;;17.35;5.93;;;18.00;99.90;;;;;;5113210;28;20051;-84
2023/07/16 05:41:03;;;;;;;14.32;5.50;;;18.10;99.90;;;;;;5116767;27;20058;-83
2023/07/16 05:43:49;;;;;;;18.73;5.68;;;18.10;99.90;;;;;;5112857;27;20047;-83
2023/07/16 05:46:35;;;;;;;15.48;5.72;;;18.10;99.90;;;;;;5132023;27;20050;-82
2023/07/16 05:49:21;;;;;;;18.15;4.95;;;18.00;99.90;;;;;;5113358;27;20047;-81
2023/07/16 05:52:08;;;;;;;15.13;5.28;;;17.90;99.90;;;;;;5131384;27;20088;-83
2023/07/16 05:54:54;;;;;;;17.20;5.47;;;17.70;99.90;;;;;;5130258;27;20079;-81
2023/07/16 05:57:40;;;;;;;15.50;5.70;;;17.70;99.90;;;;;;5130872;27;20129;-82
2023/07/16 06:00:26;;;;;;;19.05;5.80;;;17.60;99.90;;;;;;5113268;27;20043;-82
2023/07/16 06:03:12;;;;;;;14.93;5.97;;;17.60;99.90;;;;;;5145799;27;20038;-83
2023/07/16 06:05:58;;;;;;;13.63;5.72;;;17.70;99.90;;;;;;5152484;27;20043;-83
2023/07/16 06:08:44;;;;;;;15.18;5.20;;;17.90;99.90;;;;;;5132066;27;20047;-82
2023/07/16 06:11:31;;;;;;;13.90;5.18;;;17.90;99.90;;;;;;5151862;27;20053;-83
2023/07/16 06:14:17;;;;;;;12.27;4.43;;;18.00;99.90;;;;;;5150359;27;20046;-82
2023/07/16 06:17:03;;;;;;;19.23;5.85;;;18.20;99.90;;;;;;5150486;27;20047;-83
2023/07/16 06:19:51;;;;;;;14.82;5.55;;;18.30;99.90;;;;;;5150893;27;20488;-83
2023/07/16 06:22:37;;;;;;;13.90;5.10;;;18.40;99.90;;;;;;5150793;27;20066;-82
2023/07/16 06:25:23;;;;;;;13.40;4.43;;;18.40;99.90;;;;;;5117987;27;20058;-82
2023/07/16 06:28:10;;;;;;;11.90;4.70;;;18.50;99.90;;;;;;5151383;27;20099;-82
2023/07/16 06:30:56;;;;;;;9.57;4.47;;;18.60;99.90;;;;;;5150612;27;20499;-83
2023/07/16 06:33:42;;;;;;;19.75;5.40;;;18.60;99.90;;;;;;5131977;27;20138;-84
2023/07/16 06:36:28;;;;;;;16.15;5.63;;;18.60;99.90;;;;;;5150176;27;20137;-83
2023/07/16 06:39:14;;;;;;;18.52;5.00;;;18.50;99.90;;;;;;5151015;27;20043;-84
2023/07/16 06:42:01;;;;;;;16.85;5.20;;;18.40;99.90;;;;;;5151015;27;20053;-83
2023/07/16 06:44:47;;;;;;;13.98;4.53;;;18.20;99.90;;;;;;5150661;27;20051;-84
2023/07/16 06:47:33;;;;;;;11.43;4.95;;;18.20;99.90;;;;;;5135242;27;20046;-82
2023/07/16 06:50:19;;;;;;;11.50;4.95;;;18.30;99.90;;;;;;5150392;27;20107;-83
2023/07/16 06:53:05;;;;;;;23.42;5.93;;;18.40;99.90;;;;;;5114980;27;20058;-86
2023/07/16 06:55:52;;;;;;;14.90;4.90;;;18.40;99.90;;;;;;5131058;27;20146;-86
2023/07/16 06:58:38;;;;;;;14.00;5.32;;;18.20;99.90;;;;;;5129835;28;20039;-84
2023/07/16 07:01:24;;;;;;;10.90;4.72;;;18.00;99.90;;;;;;5128658;28;20062;-82
2023/07/16 07:04:10;;;;;;;14.93;5.78;;;17.80;99.90;;;;;;5129883;28;20047;-81
2023/07/16 07:06:57;;;;;;;13.80;4.07;;;17.90;99.90;;;;;;5114415;28;20433;-83
2023/07/16 07:09:43;;;;;;;13.35;5.13;;;18.00;99.90;;;;;;5128051;28;20161;-83
2023/07/16 07:12:29;;;;;;;16.48;5.32;;;18.30;99.90;;;;;;5129205;28;20506;-81
2023/07/16 07:15:15;;;;;;;15.73;4.88;;;18.40;99.90;;;;;;5129579;28;20092;-82
2023/07/16 07:18:01;;;;;;;15.93;4.88;;;18.30;99.90;;;;;;5127802;28;20558;-84
2023/07/16 07:20:47;;;;;;;16.55;4.55;;;18.30;99.90;;;;;;5129053;28;20132;-82
2023/07/16 07:23:34;;;;;;;13.98;5.10;;;18.30;99.90;;;;;;5130294;28;20165;-82
2023/07/16 07:26:20;;;;;;;13.45;4.13;;;18.20;99.90;;;;;;5129688;28;20538;-82
2023/07/16 07:29:06;;;;;;;15.02;4.53;;;18.30;99.90;;;;;;5127952;28;20051;-81
2023/07/16 07:31:53;;;;;;;17.92;5.50;;;18.50;99.90;;;;;;5129955;28;20051;-82
2023/07/16 07:34:39;;;;;;;13.95;4.57;;;18.70;99.90;;;;;;5127850;28;20078;-82
2023/07/16 07:37:25;;;;;;;15.90;5.40;;;18.80;99.90;;;;;;5130006;28;20099;-83
2023/07/16 07:40:11;;;;;;;20.33;5.60;;;19.00;99.90;;;;;;5130096;28;20406;-83
2023/07/16 07:42:57;;;;;;;17.02;4.95;;;19.20;99.90;;;;;;5129571;28;20506;-83
2023/07/16 07:45:44;;;;;;;17.55;5.00;;;19.10;99.90;;;;;;5131396;28;20145;-80
2023/07/16 07:48:30;;;;;;;14.32;5.88;;;19.10;99.90;;;;;;5130164;28;20055;-81
2023/07/16 07:51:16;;;;;;;15.18;4.75;;;19.10;99.90;;;;;;5128931;28;20483;-82
2023/07/16 07:54:02;;;;;;;14.15;4.90;;;19.40;99.90;;;;;;5130549;28;20043;-82
2023/07/16 07:56:48;;;;;;;17.10;5.28;;;19.20;99.90;;;;;;5127894;28;20531;-80
2023/07/16 07:59:34;;;;;;;16.75;5.07;;;18.90;99.90;;;;;;5130665;28;20051;-81
2023/07/16 08:02:23;;;;;;;15.60;4.78;;;18.80;99.90;;;;;;5130851;27;20084;-83
2023/07/16 08:05:09;;;;;;;15.63;4.80;;;19.00;99.90;;;;;;5115408;27;20533;-82
2023/07/16 08:07:55;;;;;;;16.63;5.97;;;19.30;99.90;;;;;;5115199;27;20051;-82
2023/07/16 08:10:42;;;;;;;14.85;4.95;;;19.50;99.90;;;;;;5132801;27;20092;-82
2023/07/16 08:13:28;;;;;;;17.63;5.15;;;19.50;99.90;;;;;;5134082;27;20074;-84
2023/07/16 08:16:14;;;;;;;13.32;5.30;;;19.60;99.90;;;;;;5113631;27;20414;-84
2023/07/16 08:19:01;;;;;;;14.63;4.07;;;19.50;99.90;;;;;;5116838;27;20052;-83
2023/07/16 08:21:47;;;;;;;14.38;4.50;;;19.50;99.90;;;;;;5133470;27;20047;-83
2023/07/16 08:24:33;;;;;;;14.38;4.50;;;19.50;99.90;;;;;;5133489;27;20474;-83
2023/07/16 08:27:19;;;;;;;11.30;4.28;;;19.80;99.90;;;;;;5133203;27;20126;-83
2023/07/16 08:30:06;;;;;;;15.93;4.90;;;19.80;99.90;;;;;;5114165;27;20057;-83
2023/07/16 08:32:52;;;;;;;13.05;5.20;;;19.80;99.90;;;;;;5135009;27;20047;-82
2023/07/16 08:35:39;;;;;;;14.82;4.50;;;19.70;99.90;;;;;;5119908;27;20663;-83
2023/07/16 08:38:26;;;;;;;17.17;5.10;;;19.70;99.90;;;;;;5134258;27;20047;-81
2023/07/16 08:41:12;;;;;;;13.15;4.32;;;20.00;99.90;;;;;;5133086;27;20459;-83
2023/07/16 08:43:58;;;;;;;12.35;5.40;;;20.10;99.90;;;;;;5132450;27;20100;-83
2023/07/16 08:46:45;;;;;;;14.75;4.55;;;20.10;99.90;;;;;;5131619;27;20391;-85
2023/07/16 08:49:32;;;;;;;14.98;4.95;;;20.50;99.90;;;;;;5113721;27;20134;-84
2023/07/16 08:52:19;;;;;;;15.55;5.45;;;20.80;99.90;;;;;;5118144;27;20047;-84
2023/07/16 08:55:06;;;;;;;14.50;4.90;;;20.60;99.90;;;;;;5128957;27;20101;-83
2023/07/16 08:57:52;;;;;;;16.65;4.72;;;20.50;99.90;;;;;;5095170;28;20158;-82
2023/07/16 09:00:39;;;;;;;12.68;4.68;;;20.40;99.90;;;;;;5112145;28;20047;-83
2023/07/16 09:03:25;;;;;;;12.80;4.50;;;20.50;99.90;;;;;;5112195;28;20040;-84
2023/07/16 09:06:11;;;;;;;19.27;5.10;;;20.20;99.90;;;;;;5094622;28;20051;-83
2023/07/16 09:08:57;;;;;;;15.93;5.28;;;20.50;99.90;;;;;;5113288;28;20043;-84
2023/07/16 09:11:48;;;;;;;13.32;3.55;;;20.60;99.90;;;;;;5112058;28;20050;-83
2023/07/16 09:14:34;;;;;;;11.43;3.78;;;20.50;99.90;;;;;;5093995;28;20051;-82
2023/07/16 09:17:24;;;;;;;15.85;4.05;;;20.60;99.90;;;;;;5111540;28;20526;-82
2023/07/16 09:20:11;;;;;;;13.88;3.83;;;20.80;99.90;;;;;;5093502;28;20400;-83
2023/07/16 09:22:58;;;;;;;9.80;3.05;;;20.90;99.90;;;;;;5112105;28;20423;-82
2023/07/16 09:25:44;;;;;;;12.73;4.22;;;20.90;99.90;;;;;;5111753;28;20056;-82
2023/07/16 09:28:31;;;;;;;13.95;3.53;;;20.80;99.90;;;;;;5096373;28;20058;-84
2023/07/16 09:31:17;;;;;;;17.88;5.72;;;20.50;99.90;;;;;;5111663;28;20048;-83
2023/07/16 09:34:04;;;;;;;13.50;4.95;;;20.20;99.90;;;;;;5093814;28;20728;-83
2023/07/16 09:36:50;;;;;;;17.00;4.18;;;20.00;99.90;;;;;;5111473;28;20138;-82
2023/07/16 09:39:37;;;;;;;17.52;5.78;;;20.20;99.90;;;;;;5080344;28;20052;-84
2023/07/16 09:42:24;;;;;;;12.07;4.15;;;20.50;99.90;;;;;;5093408;28;20055;-83
2023/07/16 09:45:18;;;;;;;17.45;4.95;;;20.80;99.90;;;;;;5092931;28;20044;-82
2023/07/16 09:48:04;;;;;;;11.23;4.40;;;21.10;99.90;;;;;;5111022;28;20051;-82
2023/07/16 09:50:53;;;;;;;16.02;4.78;;;20.90;99.90;;;;;;5111783;28;20045;-82
2023/07/16 09:53:43;;;;;;;18.02;4.93;;;20.60;99.90;;;;;;5111635;28;20133;-82
2023/07/16 09:56:37;;;;;;;17.27;5.13;;;20.80;99.90;;;;;;5126676;27;20493;-82
2023/07/16 09:59:26;;;;;;;16.83;4.35;;;20.80;99.90;;;;;;5150905;27;20050;-83
2023/07/16 10:02:12;;;;;;;20.35;4.53;;;20.80;99.90;;;;;;5133143;27;20051;-83
2023/07/16 10:04:58;;;;;;;16.65;4.90;;;20.80;99.90;;;;;;5151495;27;20136;-81
2023/07/16 10:07:55;;;;;;;13.63;4.22;;;20.80;99.90;;;;;;5151932;27;20047;-81
2023/07/16 10:10:48;;;;;;;10.18;4.20;;;21.20;99.90;;;;;;5118378;27;20051;-81
2023/07/16 10:13:34;;;;;;;14.65;4.88;;;21.30;99.90;;;;;;5132842;27;20050;-82
2023/07/16 10:16:22;;;;;;;16.27;4.07;;;21.50;99.90;;;;;;5130107;27;20043;-82
2023/07/16 10:19:08;;;;;;;11.30;4.15;;;21.60;99.90;;;;;;5132916;27;20449;-83
2023/07/16 10:21:54;;;;;;;9.85;4.15;;;21.40;99.90;;;;;;5132843;27;20049;-82
2023/07/16 10:24:40;;;;;;;14.27;4.72;;;21.00;99.90;;;;;;5150278;27;20046;-82
2023/07/16 10:27:31;;;;;;;13.23;3.85;;;20.80;99.90;;;;;;5150211;27;20498;-82
2023/07/16 10:30:18;;;;;;;14.50;5.43;;;20.80;99.90;;;;;;5132620;27;20050;-82
2023/07/16 10:33:12;;;;;;;12.45;3.67;;;20.80;99.90;;;;;;5150875;27;20459;-81
2023/07/16 10:35:59;;;;;;;10.07;3.75;;;20.60;99.90;;;;;;5119109;27;20046;-83
2023/07/16 10:38:45;;;;;;;13.80;3.78;;;20.30;99.90;;;;;;5131741;27;20042;-82
2023/07/16 10:41:35;;;;;;;16.50;4.43;;;20.70;99.90;;;;;;5129638;27;20073;-82
2023/07/16 10:44:22;;;;;;;15.35;4.20;;;21.10;99.90;;;;;;5131273;27;20044;-82
2023/07/16 10:47:19;;;;;;;14.75;4.75;;;20.90;99.90;;;;;;5112887;27;20051;-81
2023/07/16 10:50:07;;;;;;;21.73;5.07;;;20.80;99.90;;;;;;5130427;27;20126;-83
2023/07/16 10:52:55;;;;;;;13.05;4.25;;;20.60;99.90;;;;;;5130595;27;20047;-83
2023/07/16 10:55:41;;;;;;;14.90;4.88;;;20.70;99.90;;;;;;5129869;27;20082;-83
2023/07/16 10:58:28;;;;;;;14.35;3.83;;;20.70;99.90;;;;;;5113024;28;20089;-83
2023/07/16 11:01:14;;;;;;;11.73;4.07;;;20.50;99.90;;;;;;5129863;28;20083;-82
2023/07/16 11:04:01;;;;;;;17.42;4.75;;;20.10;99.90;;;;;;5113422;28;20051;-83
2023/07/16 11:06:50;;;;;;;16.33;4.63;;;19.60;99.90;;;;;;5131496;28;20065;-83
2023/07/16 11:09:43;;;;;;;12.63;4.25;;;19.50;99.90;;;;;;5131756;28;20051;-84
2023/07/16 11:12:29;;;;;;;20.02;4.68;;;19.90;99.90;;;;;;5130476;28;20559;-82
2023/07/16 11:15:15;;;;;;;16.50;4.63;;;20.20;99.90;;;;;;5129809;28;20504;-84
2023/07/16 11:18:02;;;;;;;17.83;4.35;;;20.40;99.90;;;;;;5131426;28;20043;-83
2023/07/16 11:20:52;;;;;;;17.88;4.65;;;20.80;99.90;;;;;;5130945;28;20050;-84
2023/07/16 11:23:39;;;;;;;13.48;3.70;;;20.80;99.90;;;;;;5130906;28;20043;-83
2023/07/16 11:26:25;;;;;;;17.60;4.40;;;20.30;99.90;;;;;;5129634;28;20080;-83
2023/07/16 11:29:15;;;;;;;14.50;4.53;;;20.00;99.90;;;;;;5130509;28;20127;-86
2023/07/16 11:32:01;;;;;;;17.65;4.57;;;19.90;99.90;;;;;;5130639;28;20044;-82
2023/07/16 11:34:57;;;;;;;16.00;4.97;;;19.90;99.90;;;;;;5131124;28;20138;-83
2023/07/16 11:37:45;;;;;;;19.50;5.28;;;19.80;99.90;;;;;;5133383;27;20067;-82
2023/07/16 11:40:33;;;;;;;15.55;4.78;;;20.00;99.90;;;;;;5134653;27;20051;-84
2023/07/16 11:43:19;;;;;;;15.43;5.05;;;20.20;99.90;;;;;;5133719;27;20047;-83
2023/07/16 11:46:15;;;;;;;23.40;4.20;;;20.60;99.90;;;;;;5134365;27;20133;-83
2023/07/16 11:49:03;;;;;;;14.45;4.20;;;20.80;99.90;;;;;;5136070;27;20051;-83
2023/07/16 11:51:49;;;;;;;18.10;4.57;;;20.70;99.90;;;;;;5132436;27;20051;-84
2023/07/16 11:54:35;;;;;;;19.83;4.22;;;20.70;99.90;;;;;;5133486;27;20483;-83
2023/07/16 11:57:21;;;;;;;18.10;3.85;;;20.90;99.90;;;;;;5118247;27;20100;-81
2023/07/16 12:00:08;;;;;;;16.20;3.78;;;21.20;99.90;;;;;;5115756;27;20066;-82
2023/07/16 12:02:54;;;;;;;17.95;3.03;;;21.70;99.90;;;;;;5133761;27;20092;-83
2023/07/16 12:05:40;;;;;;;10.05;2.50;;;21.80;99.40;;;;;;5131917;27;20509;-83
2023/07/16 12:08:26;;;;;;;14.75;3.20;;;21.30;98.50;;;;;;5132899;27;20087;-82
2023/07/16 12:11:12;;;;;;;18.73;3.53;;;21.20;99.00;;;;;;5117906;27;20457;-81
2023/07/16 12:13:58;;;;;;;13.18;2.45;;;21.10;99.10;;;;;;5117497;27;20461;-83
2023/07/16 12:16:45;;;;;;;16.27;3.28;;;21.00;99.60;;;;;;5114482;27;20043;-83
2023/07/16 12:19:31;;;;;;;11.20;2.35;;;21.10;98.50;;;;;;5134360;27;20555;-82
2023/07/16 12:22:18;;;;;;;18.17;3.33;;;21.30;98.50;;;;;;5119842;27;20085;-83
2023/07/16 12:25:05;;;;;;;14.40;2.20;;;21.70;98.10;;;;;;5134357;27;20035;-82
2023/07/16 12:27:51;;;;;;;15.65;3.30;;;21.70;98.00;;;;;;5134502;27;20055;-82
2023/07/16 12:30:37;;;;;;;13.48;2.95;;;21.40;98.00;;;;;;5134850;27;20047;-82
2023/07/16 12:33:24;;;;;;;11.23;3.05;;;21.00;98.40;;;;;;5119544;27;20093;-82
2023/07/16 12:36:10;;;;;;;21.27;3.28;;;20.80;99.40;;;;;;5134545;27;20082;-82
2023/07/16 12:38:56;;;;;;;19.27;4.07;;;20.60;99.80;;;;;;5134926;27;20039;-83
2023/07/16 12:41:43;;;;;;;14.60;3.20;;;20.50;99.90;;;;;;5134909;27;20047;-81
2023/07/16 12:44:30;;;;;;;15.30;3.35;;;20.30;99.90;;;;;;5101160;27;20489;-82
2023/07/16 12:47:16;;;;;;;19.38;4.60;;;20.00;99.90;;;;;;5116044;27;20114;-83
2023/07/16 12:50:02;;;;;;;19.13;4.55;;;19.20;99.90;;;;;;5135128;27;20143;-81
2023/07/16 12:52:49;;;;;;;19.67;4.85;;;18.60;99.90;;;;;;5114125;27;20082;-81
2023/07/16 12:55:35;;;;;;;18.95;4.35;;;18.20;99.90;;;;;;5114362;27;20051;-84
2023/07/16 12:58:22;;;;;;;19.90;5.07;;;18.10;99.90;;;;;;5132736;27;20062;-82
2023/07/16 13:01:08;;;;;;;17.58;3.60;;;18.20;99.90;;;;;;5116292;27;20100;-83
2023/07/16 13:03:54;;;;;;;19.58;3.80;;;18.80;99.90;;;;;;5124496;27;20039;-84
2023/07/16 13:06:42;;;;;;;19.83;3.75;;;19.10;99.90;;;;;;5114585;27;20133;-82
2023/07/16 13:09:28;;;;;;;17.67;3.85;;;19.50;99.90;;;;;;5117257;27;20106;-83
2023/07/16 13:12:14;;;;;;;18.40;3.95;;;20.00;99.90;;;;;;5132940;27;20082;-86
2023/07/16 13:15:00;;;;;;;16.30;4.90;;;20.00;99.90;;;;;;5132838;27;20079;-82
2023/07/16 13:17:47;;;;;;;22.25;4.60;;;20.20;99.90;;;;;;5132197;27;20100;-83
2023/07/16 13:20:33;;;;;;;21.92;3.95;;;20.20;99.90;;;;;;5131256;27;20104;-83
2023/07/16 13:23:20;;;;;;;23.77;4.82;;;20.30;99.90;;;;;;5132930;27;20122;-82
2023/07/16 13:26:06;;;;;;;15.95;4.03;;;20.40;99.90;;;;;;5113683;27;20047;-81
2023/07/16 13:28:52;;;;;;;19.85;4.40;;;20.40;99.90;;;;;;5113254;27;20157;-82
2023/07/16 13:31:38;;;;;;;23.33;4.15;;;20.40;99.90;;;;;;5132369;27;20096;-84
2023/07/16 13:34:24;;;;;;;19.73;4.65;;;20.40;99.90;;;;;;5132428;27;20490;-84
2023/07/16 13:37:10;;;;;;;19.33;3.75;;;20.20;99.90;;;;;;5114439;27;20142;-82
2023/07/16 13:39:57;;;;;;;17.15;3.50;;;20.40;99.90;;;;;;5113475;27;20070;-82
2023/07/16 13:42:42;;;;;;;15.52;3.47;;;20.60;99.90;;;;;;5130754;27;20054;-82
2023/07/16 13:45:28;;;;;;;17.77;3.53;;;20.60;99.90;;;;;;5112098;27;20047;-83
2023/07/16 13:48:15;;;;;;;15.52;3.95;;;20.50;99.90;;;;;;5116159;27;20043;-82
2023/07/16 13:51:01;;;;;;;16.05;3.15;;;20.40;99.90;;;;;;5130361;27;20495;-83
2023/07/16 13:53:47;;;;;;;16.33;3.55;;;20.50;99.90;;;;;;5113465;27;20044;-84
2023/07/16 13:56:33;;;;;;;10.95;2.58;;;20.50;99.90;;;;;;5129888;27;20067;-83
2023/07/16 13:59:19;;;;;;;10.82;3.88;;;20.30;99.90;;;;;;5130796;27;20095;-83
2023/07/16 14:02:05;;;;;;;15.45;3.35;;;20.60;99.90;;;;;;5112567;27;20090;-82
2023/07/16 14:04:51;;;;;;;14.63;3.28;;;21.10;99.90;;;;;;5131819;27;20499;-83
2023/07/16 14:07:37;;;;;;;15.10;2.65;;;21.40;99.20;;;;;;5131966;27;20498;-83
2023/07/16 14:10:24;;;;;;;18.30;3.33;;;22.20;98.90;;;;;;5131838;27;20051;-83
2023/07/16 14:13:10;;;;;;;15.07;2.92;;;21.90;98.30;;;;;;5134114;27;20046;-85
2023/07/16 14:15:56;;;;;;;17.48;3.65;;;21.50;98.40;;;;;;5134833;27;20055;-83
2023/07/16 14:18:42;;;;;;;13.02;3.28;;;21.40;99.00;;;;;;5114853;27;20059;-85